sensor_id;sensor_type;location;lat;lon;timestamp;temperature;humidity
44817;DHT22;30529;53.570;9.964;2023-07-20T00:02:07;15.60;99.90
44817;DHT22;30529;53.570;9.964;2023-07-20T00:04:33;15.60;99.90
44817;DHT22;30529;53.570;9.964;2023-07-20T00:07:00;15.60;99.90
44817;DHT22;30529;53.570;9.964;2023-07-20T00:09:28;15.60;99.90
44817;DHT22;30529;53.570;9.964;2023-07-20T00:11:54;15.60;99.90
44817;DHT22;30529;53.570;9.964;2023-07-20T00:14:21;15.70;99.90
44817;DHT22;30529;53.570;9.964;2023-07-20T00:16:47;15.70;99.90
44817;DHT22;30529;53.570;9.964;2023-07-20T00:19:15;15.70;99.90
44817;DHT22;30529;53.570;9.964;2023-07-20T00:21:42;15.70;99.90
44817;DHT22;30529;53.570;9.964;2023-07-20T00:24:08;15.70;99.90
44817;DHT22;30529;53.570;9.964;2023-07-20T00:26:34;15.70;99.90
44817;DHT22;30529;53.570;9.964;2023-07-20T00:29:00;15.70;99.90
44817;DHT22;30529;53.570;9.964;2023-07-20T00:31:27;15.70;99.90
44817;DHT22;30529;53.570;9.964;2023-07-20T00:33:53;15.70;99.90
44817;DHT22;30529;53.570;9.964;2023-07-20T00:36:19;15.70;99.90
44817;DHT22;30529;53.570;9.964;2023-07-20T00:38:44;15.70;99.90
44817;DHT22;30529;53.570;9.964;2023-07-20T00:41:10;15.80;99.90
44817;DHT22;30529;53.570;9.964;2023-07-20T00:43:36;15.80;99.90
44817;DHT22;30529;53.570;9.964;2023-07-20T00:46:03;15.80;99.90
44817;DHT22;30529;53.570;9.964;2023-07-20T00:48:30;15.80;99.90
44817;DHT22;30529;53.570;9.964;2023-07-20T00:50:57;15.80;99.90
44817;DHT22;30529;53.570;9.964;2023-07-20T00:53:24;15.70;99.90
44817;DHT22;30529;53.570;9.964;2023-07-20T00:55:50;15.70;99.90
44817;DHT22;30529;53.570;9.964;2023-07-20T00:58:16;15.60;99.90
44817;DHT22;30529;53.570;9.964;2023-07-20T01:00:42;15.60;99.90
44817;DHT22;30529;53.570;9.964;2023-07-20T01:03:08;15.60;99.90
44817;DHT22;30529;53.570;9.964;2023-07-20T01:09:11;15.50;99.90
44817;DHT22;30529;53.570;9.964;2023-07-20T01:14:10;15.50;99.90
44817;DHT22;30529;53.570;9.964;2023-07-20T01:16:37;15.40;99.90
44817;DHT22;30529;53.570;9.964;2023-07-20T01:19:03;15.40;99.90
44817;DHT22;30529;53.570;9.964;2023-07-20T01:21:55;15.50;99.90
44817;DHT22;30529;53.570;9.964;2023-07-20T01:24:44;15.40;99.90
44817;DHT22;30529;53.570;9.964;2023-07-20T01:30:35;15.30;99.90
44817;DHT22;30529;53.570;9.964;2023-07-20T01:33:07;15.30;99.90
44817;DHT22;30529;53.570;9.964;2023-07-20T01:35:34;15.30;99.90
44817;DHT22;30529;53.570;9.964;2023-07-20T01:38:01;15.30;99.90
44817;DHT22;30529;53.570;9.964;2023-07-20T01:40:28;15.30;99.90
44817;DHT22;30529;53.570;9.964;2023-07-20T01:42:54;15.30;99.90
44817;DHT22;30529;53.570;9.964;2023-07-20T01:45:20;15.30;99.90
44817;DHT22;30529;53.570;9.964;2023-07-20T01:47:46;15.30;99.90
44817;DHT22;30529;53.570;9.964;2023-07-20T01:50:12;15.40;99.90
44817;DHT22;30529;53.570;9.964;2023-07-20T01:52:38;15.40;99.90
44817;DHT22;30529;53.570;9.964;2023-07-20T01:55:05;15.40;99.90
44817;DHT22;30529;53.570;9.964;2023-07-20T01:57:31;15.50;99.90
44817;DHT22;30529;53.570;9.964;2023-07-20T01:59:57;15.50;99.90
44817;DHT22;30529;53.570;9.964;2023-07-20T02:02:26;15.50;99.90
44817;DHT22;30529;53.570;9.964;2023-07-20T02:04:52;15.50;99.90
44817;DHT22;30529;53.570;9.964;2023-07-20T02:07:18;15.50;99.90
44817;DHT22;30529;53.570;9.964;2023-07-20T02:09:44;15.50;99.90
44817;DHT22;30529;53.570;9.964;2023-07-20T02:12:10;15.50;99.90
44817;DHT22;30529;53.570;9.964;2023-07-20T02:14:36;15.50;99.90
44817;DHT22;30529;53.570;9.964;2023-07-20T02:17:02;15.40;99.90
44817;DHT22;30529;53.570;9.964;2023-07-20T02:19:30;15.40;99.90
44817;DHT22;30529;53.570;9.964;2023-07-20T02:21:56;15.40;99.90
44817;DHT22;30529;53.570;9.964;2023-07-20T02:24:22;15.40;99.90
44817;DHT22;30529;53.570;9.964;2023-07-20T02:26:48;15.40;99.90
44817;DHT22;30529;53.570;9.964;2023-07-20T02:29:14;15.30;99.90
44817;DHT22;30529;53.570;9.964;2023-07-20T02:31:40;15.30;99.90
44817;DHT22;30529;53.570;9.964;2023-07-20T02:34:08;15.30;99.90
44817;DHT22;30529;53.570;9.964;2023-07-20T02:36:35;15.30;99.90
44817;DHT22;30529;53.570;9.964;2023-07-20T02:39:01;15.30;99.90
44817;DHT22;30529;53.570;9.964;2023-07-20T02:41:32;15.30;99.90
44817;DHT22;30529;53.570;9.964;2023-07-20T02:43:58;15.20;99.90
44817;DHT22;30529;53.570;9.964;2023-07-20T02:46:24;15.20;99.90
44817;DHT22;30529;53.570;9.964;2023-07-20T02:48:50;15.20;99.90
44817;DHT22;30529;53.570;9.964;2023-07-20T02:51:16;15.20;99.90
44817;DHT22;30529;53.570;9.964;2023-07-20T02:53:41;15.20;99.90
44817;DHT22;30529;53.570;9.964;2023-07-20T02:56:08;15.20;99.90
44817;DHT22;30529;53.570;9.964;2023-07-20T02:58:34;15.20;99.90
44817;DHT22;30529;53.570;9.964;2023-07-20T03:01:02;15.20;99.90
44817;DHT22;30529;53.570;9.964;2023-07-20T03:03:28;15.20;99.90
44817;DHT22;30529;53.570;9.964;2023-07-20T03:05:55;15.20;99.90
44817;DHT22;30529;53.570;9.964;2023-07-20T03:08:23;15.20;99.90
44817;DHT22;30529;53.570;9.964;2023-07-20T03:10:49;15.20;99.90
44817;DHT22;30529;53.570;9.964;2023-07-20T03:13:16;15.20;99.90
44817;DHT22;30529;53.570;9.964;2023-07-20T03:15:42;15.20;99.90
44817;DHT22;30529;53.570;9.964;2023-07-20T03:18:08;15.20;99.90
44817;DHT22;30529;53.570;9.964;2023-07-20T03:20:35;15.20;99.90
44817;DHT22;30529;53.570;9.964;2023-07-20T03:23:01;15.20;99.90
44817;DHT22;30529;53.570;9.964;2023-07-20T03:25:28;15.20;99.90
44817;DHT22;30529;53.570;9.964;2023-07-20T03:27:54;15.10;99.90
44817;DHT22;30529;53.570;9.964;2023-07-20T03:30:20;15.10;99.90
44817;DHT22;30529;53.570;9.964;2023-07-20T03:32:46;15.10;99.90
44817;DHT22;30529;53.570;9.964;2023-07-20T03:35:12;15.10;99.90
44817;DHT22;30529;53.570;9.964;2023-07-20T03:37:38;15.10;99.90
44817;DHT22;30529;53.570;9.964;2023-07-20T03:40:04;15.10;99.90
44817;DHT22;30529;53.570;9.964;2023-07-20T03:42:31;15.10;99.90
44817;DHT22;30529;53.570;9.964;2023-07-20T03:44:57;15.20;99.90
44817;DHT22;30529;53.570;9.964;2023-07-20T03:47:22;15.20;99.90
44817;DHT22;30529;53.570;9.964;2023-07-20T03:49:50;15.20;99.90
44817;DHT22;30529;53.570;9.964;2023-07-20T03:52:16;15.20;99.90
44817;DHT22;30529;53.570;9.964;2023-07-20T03:54:42;15.20;99.90
44817;DHT22;30529;53.570;9.964;2023-07-20T03:57:08;15.20;99.90
44817;DHT22;30529;53.570;9.964;2023-07-20T03:59:37;15.30;99.90
44817;DHT22;30529;53.570;9.964;2023-07-20T04:02:03;15.30;99.90
44817;DHT22;30529;53.570;9.964;2023-07-20T04:04:31;15.30;99.90
44817;DHT22;30529;53.570;9.964;2023-07-20T04:06:57;15.40;99.90
44817;DHT22;30529;53.570;9.964;2023-07-20T04:09:23;15.50;99.90
44817;DHT22;30529;53.570;9.964;2023-07-20T04:11:49;15.40;99.90
44817;DHT22;30529;53.570;9.964;2023-07-20T04:14:15;15.40;99.90
44817;DHT22;30529;53.570;9.964;2023-07-20T04:16:41;15.30;99.90
44817;DHT22;30529;53.570;9.964;2023-07-20T04:19:07;15.20;99.90
44817;DHT22;30529;53.570;9.964;2023-07-20T04:21:40;15.20;99.90
44817;DHT22;30529;53.570;9.964;2023-07-20T04:24:06;15.20;99.90
44817;DHT22;30529;53.570;9.964;2023-07-20T04:26:32;15.10;99.90
44817;DHT22;30529;53.570;9.964;2023-07-20T04:28:58;15.10;99.90
44817;DHT22;30529;53.570;9.964;2023-07-20T04:31:27;15.20;99.90
44817;DHT22;30529;53.570;9.964;2023-07-20T04:33:53;15.30;99.90
44817;DHT22;30529;53.570;9.964;2023-07-20T04:36:19;15.60;99.90
44817;DHT22;30529;53.570;9.964;2023-07-20T04:38:45;15.90;99.90
44817;DHT22;30529;53.570;9.964;2023-07-20T04:41:12;16.00;99.90
44817;DHT22;30529;53.570;9.964;2023-07-20T04:43:44;16.20;99.90
44817;DHT22;30529;53.570;9.964;2023-07-20T04:46:11;16.40;99.90
44817;DHT22;30529;53.570;9.964;2023-07-20T04:48:37;16.50;99.90
44817;DHT22;30529;53.570;9.964;2023-07-20T04:51:03;16.30;99.90
44817;DHT22;30529;53.570;9.964;2023-07-20T04:53:29;16.10;99.90
44817;DHT22;30529;53.570;9.964;2023-07-20T04:55:56;16.10;99.90
44817;DHT22;30529;53.570;9.964;2023-07-20T04:58:23;16.10;99.90
44817;DHT22;30529;53.570;9.964;2023-07-20T05:00:49;16.00;99.90
44817;DHT22;30529;53.570;9.964;2023-07-20T05:03:16;16.00;99.90
44817;DHT22;30529;53.570;9.964;2023-07-20T05:05:42;16.20;99.90
44817;DHT22;30529;53.570;9.964;2023-07-20T05:08:07;16.50;99.90
44817;DHT22;30529;53.570;9.964;2023-07-20T05:10:33;16.90;99.90
44817;DHT22;30529;53.570;9.964;2023-07-20T05:13:00;17.00;99.90
44817;DHT22;30529;53.570;9.964;2023-07-20T05:15:26;17.20;99.90
44817;DHT22;30529;53.570;9.964;2023-07-20T05:17:52;17.10;99.90
44817;DHT22;30529;53.570;9.964;2023-07-20T05:20:18;17.10;99.90
44817;DHT22;30529;53.570;9.964;2023-07-20T05:22:44;17.10;99.90
44817;DHT22;30529;53.570;9.964;2023-07-20T05:25:10;17.10;99.90
44817;DHT22;30529;53.570;9.964;2023-07-20T05:27:38;17.30;99.90
44817;DHT22;30529;53.570;9.964;2023-07-20T05:30:04;17.60;99.90
44817;DHT22;30529;53.570;9.964;2023-07-20T05:32:30;18.00;99.90
44817;DHT22;30529;53.570;9.964;2023-07-20T05:34:56;18.10;99.90
44817;DHT22;30529;53.570;9.964;2023-07-20T05:37:22;18.10;99.90
44817;DHT22;30529;53.570;9.964;2023-07-20T05:39:48;18.20;99.90
44817;DHT22;30529;53.570;9.964;2023-07-20T05:42:14;18.30;99.90
44817;DHT22;30529;53.570;9.964;2023-07-20T05:44:40;18.40;99.90
44817;DHT22;30529;53.570;9.964;2023-07-20T05:47:07;18.50;99.90
44817;DHT22;30529;53.570;9.964;2023-07-20T05:49:33;18.60;99.90
44817;DHT22;30529;53.570;9.964;2023-07-20T05:52:00;18.60;99.90
44817;DHT22;30529;53.570;9.964;2023-07-20T05:54:27;18.70;99.90
44817;DHT22;30529;53.570;9.964;2023-07-20T05:56:53;18.70;99.90
44817;DHT22;30529;53.570;9.964;2023-07-20T05:59:19;18.90;99.90
44817;DHT22;30529;53.570;9.964;2023-07-20T06:01:46;18.90;99.90
44817;DHT22;30529;53.570;9.964;2023-07-20T06:04:14;18.90;99.90
44817;DHT22;30529;53.570;9.964;2023-07-20T06:06:41;19.00;99.90
44817;DHT22;30529;53.570;9.964;2023-07-20T06:09:07;19.00;99.90
44817;DHT22;30529;53.570;9.964;2023-07-20T06:11:40;18.90;99.90
44817;DHT22;30529;53.570;9.964;2023-07-20T06:14:06;18.80;99.90
44817;DHT22;30529;53.570;9.964;2023-07-20T06:16:32;18.70;99.90
44817;DHT22;30529;53.570;9.964;2023-07-20T06:19:00;18.70;99.90
44817;DHT22;30529;53.570;9.964;2023-07-20T06:21:26;18.70;99.90
44817;DHT22;30529;53.570;9.964;2023-07-20T06:23:52;18.50;99.90
44817;DHT22;30529;53.570;9.964;2023-07-20T06:26:18;18.60;99.90
44817;DHT22;30529;53.570;9.964;2023-07-20T06:28:43;18.70;99.90
44817;DHT22;30529;53.570;9.964;2023-07-20T06:31:09;18.60;99.90
44817;DHT22;30529;53.570;9.964;2023-07-20T06:33:36;18.60;99.90
44817;DHT22;30529;53.570;9.964;2023-07-20T06:36:02;18.50;99.90
44817;DHT22;30529;53.570;9.964;2023-07-20T06:38:28;18.30;99.90
44817;DHT22;30529;53.570;9.964;2023-07-20T06:40:55;18.20;99.90
44817;DHT22;30529;53.570;9.964;2023-07-20T06:43:21;18.20;99.90
44817;DHT22;30529;53.570;9.964;2023-07-20T06:45:53;18.00;99.90
44817;DHT22;30529;53.570;9.964;2023-07-20T06:48:19;17.80;99.90
44817;DHT22;30529;53.570;9.964;2023-07-20T06:50:45;17.70;99.90
44817;DHT22;30529;53.570;9.964;2023-07-20T06:53:12;17.70;99.90
44817;DHT22;30529;53.570;9.964;2023-07-20T06:55:38;17.70;99.90
44817;DHT22;30529;53.570;9.964;2023-07-20T06:58:04;17.60;99.90
44817;DHT22;30529;53.570;9.964;2023-07-20T07:00:30;17.60;99.90
44817;DHT22;30529;53.570;9.964;2023-07-20T07:02:56;17.50;99.90
44817;DHT22;30529;53.570;9.964;2023-07-20T07:05:22;17.50;99.90
44817;DHT22;30529;53.570;9.964;2023-07-20T07:07:48;17.60;99.90
44817;DHT22;30529;53.570;9.964;2023-07-20T07:10:15;17.60;99.90
44817;DHT22;30529;53.570;9.964;2023-07-20T07:12:41;17.70;99.90
44817;DHT22;30529;53.570;9.964;2023-07-20T07:15:07;17.80;99.90
44817;DHT22;30529;53.570;9.964;2023-07-20T07:17:33;17.70;99.90
44817;DHT22;30529;53.570;9.964;2023-07-20T07:20:00;17.70;99.90
44817;DHT22;30529;53.570;9.964;2023-07-20T07:22:26;17.70;99.90
44817;DHT22;30529;53.570;9.964;2023-07-20T07:24:52;17.80;99.90
44817;DHT22;30529;53.570;9.964;2023-07-20T07:27:19;17.90;99.90
44817;DHT22;30529;53.570;9.964;2023-07-20T07:29:45;18.10;99.90
44817;DHT22;30529;53.570;9.964;2023-07-20T07:32:12;18.40;99.90
44817;DHT22;30529;53.570;9.964;2023-07-20T07:34:39;18.50;99.90
44817;DHT22;30529;53.570;9.964;2023-07-20T07:37:05;18.30;99.90
44817;DHT22;30529;53.570;9.964;2023-07-20T07:39:31;18.00;99.90
44817;DHT22;30529;53.570;9.964;2023-07-20T07:41:57;17.70;99.90
44817;DHT22;30529;53.570;9.964;2023-07-20T07:44:23;17.40;99.90
44817;DHT22;30529;53.570;9.964;2023-07-20T07:46:50;17.30;99.90
44817;DHT22;30529;53.570;9.964;2023-07-20T07:49:16;17.30;99.90
44817;DHT22;30529;53.570;9.964;2023-07-20T07:51:44;17.30;99.90
44817;DHT22;30529;53.570;9.964;2023-07-20T07:54:10;17.40;99.90
44817;DHT22;30529;53.570;9.964;2023-07-20T07:56:36;17.60;99.90
44817;DHT22;30529;53.570;9.964;2023-07-20T07:59:02;17.80;99.90
44817;DHT22;30529;53.570;9.964;2023-07-20T08:01:31;17.90;99.90
44817;DHT22;30529;53.570;9.964;2023-07-20T08:03:57;18.00;99.90
44817;DHT22;30529;53.570;9.964;2023-07-20T08:06:23;18.00;99.90
44817;DHT22;30529;53.570;9.964;2023-07-20T08:08:50;18.00;99.90
44817;DHT22;30529;53.570;9.964;2023-07-20T08:11:16;18.20;99.90
44817;DHT22;30529;53.570;9.964;2023-07-20T08:13:43;18.20;99.90
44817;DHT22;30529;53.570;9.964;2023-07-20T08:16:09;18.20;99.90
44817;DHT22;30529;53.570;9.964;2023-07-20T08:18:35;18.30;99.90
44817;DHT22;30529;53.570;9.964;2023-07-20T08:21:01;18.30;99.90
44817;DHT22;30529;53.570;9.964;2023-07-20T08:23:27;18.50;99.90
44817;DHT22;30529;53.570;9.964;2023-07-20T08:25:53;18.60;99.90
44817;DHT22;30529;53.570;9.964;2023-07-20T08:28:19;18.60;99.90
44817;DHT22;30529;53.570;9.964;2023-07-20T08:30:47;18.50;99.90
44817;DHT22;30529;53.570;9.964;2023-07-20T08:33:14;18.30;99.90
44817;DHT22;30529;53.570;9.964;2023-07-20T08:35:41;18.00;99.90
44817;DHT22;30529;53.570;9.964;2023-07-20T08:38:07;18.10;99.90
44817;DHT22;30529;53.570;9.964;2023-07-20T08:40:38;18.30;99.90
44817;DHT22;30529;53.570;9.964;2023-07-20T08:43:05;18.40;99.90
44817;DHT22;30529;53.570;9.964;2023-07-20T08:45:33;18.30;99.90
44817;DHT22;30529;53.570;9.964;2023-07-20T08:48:01;18.20;99.90
44817;DHT22;30529;53.570;9.964;2023-07-20T08:50:30;17.80;99.90
44817;DHT22;30529;53.570;9.964;2023-07-20T08:52:57;17.60;99.90
44817;DHT22;30529;53.570;9.964;2023-07-20T08:55:26;17.30;99.90
44817;DHT22;30529;53.570;9.964;2023-07-20T08:57:54;17.20;99.90
44817;DHT22;30529;53.570;9.964;2023-07-20T09:00:21;17.30;99.90
44817;DHT22;30529;53.570;9.964;2023-07-20T09:02:50;17.20;99.90
44817;DHT22;30529;53.570;9.964;2023-07-20T09:05:20;17.30;99.90
44817;DHT22;30529;53.570;9.964;2023-07-20T09:07:46;17.40;99.90
44817;DHT22;30529;53.570;9.964;2023-07-20T09:10:13;17.60;99.90
44817;DHT22;30529;53.570;9.964;2023-07-20T09:12:41;17.90;99.90
44817;DHT22;30529;53.570;9.964;2023-07-20T09:15:08;18.20;99.90
44817;DHT22;30529;53.570;9.964;2023-07-20T09:17:34;18.50;99.90
44817;DHT22;30529;53.570;9.964;2023-07-20T09:20:05;18.70;99.90
44817;DHT22;30529;53.570;9.964;2023-07-20T09:22:34;18.90;99.90
44817;DHT22;30529;53.570;9.964;2023-07-20T09:25:00;19.00;99.90
44817;DHT22;30529;53.570;9.964;2023-07-20T09:27:39;18.90;99.90
44817;DHT22;30529;53.570;9.964;2023-07-20T09:30:05;18.70;99.90
44817;DHT22;30529;53.570;9.964;2023-07-20T09:32:47;18.30;99.90
44817;DHT22;30529;53.570;9.964;2023-07-20T09:35:15;17.90;99.90
44817;DHT22;30529;53.570;9.964;2023-07-20T09:37:54;17.50;99.90
44817;DHT22;30529;53.570;9.964;2023-07-20T09:40:21;17.30;99.90
44817;DHT22;30529;53.570;9.964;2023-07-20T09:42:47;17.20;99.90
44817;DHT22;30529;53.570;9.964;2023-07-20T09:45:14;17.10;99.90
44817;DHT22;30529;53.570;9.964;2023-07-20T09:47:40;17.00;99.90
44817;DHT22;30529;53.570;9.964;2023-07-20T09:50:08;17.00;99.90
44817;DHT22;30529;53.570;9.964;2023-07-20T09:52:38;17.00;99.90
44817;DHT22;30529;53.570;9.964;2023-07-20T09:55:09;17.10;99.90
44817;DHT22;30529;53.570;9.964;2023-07-20T09:57:37;17.10;99.90
44817;DHT22;30529;53.570;9.964;2023-07-20T10:00:05;17.20;99.90
44817;DHT22;30529;53.570;9.964;2023-07-20T10:02:45;17.30;99.90
44817;DHT22;30529;53.570;9.964;2023-07-20T10:05:13;17.30;99.90
44817;DHT22;30529;53.570;9.964;2023-07-20T10:07:50;17.40;99.90
44817;DHT22;30529;53.570;9.964;2023-07-20T10:10:17;17.40;99.90
44817;DHT22;30529;53.570;9.964;2023-07-20T10:12:48;17.60;99.90
44817;DHT22;30529;53.570;9.964;2023-07-20T10:15:22;17.90;99.90
44817;DHT22;30529;53.570;9.964;2023-07-20T10:17:59;18.30;99.90
44817;DHT22;30529;53.570;9.964;2023-07-20T10:20:28;18.50;99.90
44817;DHT22;30529;53.570;9.964;2023-07-20T10:22:56;18.60;99.90
44817;DHT22;30529;53.570;9.964;2023-07-20T10:25:23;18.80;99.90
44817;DHT22;30529;53.570;9.964;2023-07-20T10:27:49;19.00;99.90
44817;DHT22;30529;53.570;9.964;2023-07-20T10:30:17;19.10;99.90
44817;DHT22;30529;53.570;9.964;2023-07-20T10:32:44;19.10;99.90
44817;DHT22;30529;53.570;9.964;2023-07-20T10:35:18;18.90;99.90
44817;DHT22;30529;53.570;9.964;2023-07-20T10:37:55;18.90;99.90
44817;DHT22;30529;53.570;9.964;2023-07-20T10:40:36;18.70;99.90
44817;DHT22;30529;53.570;9.964;2023-07-20T10:48:05;19.00;99.90
44817;DHT22;30529;53.570;9.964;2023-07-20T10:50:33;19.30;99.90
44817;DHT22;30529;53.570;9.964;2023-07-20T10:53:13;19.50;99.90
44817;DHT22;30529;53.570;9.964;2023-07-20T10:55:40;19.60;99.90
44817;DHT22;30529;53.570;9.964;2023-07-20T10:58:13;19.50;99.90
44817;DHT22;30529;53.570;9.964;2023-07-20T11:01:01;19.30;99.90
44817;DHT22;30529;53.570;9.964;2023-07-20T11:03:31;19.10;99.90
44817;DHT22;30529;53.570;9.964;2023-07-20T11:05:58;19.30;99.90
44817;DHT22;30529;53.570;9.964;2023-07-20T11:08:43;19.50;99.90
44817;DHT22;30529;53.570;9.964;2023-07-20T11:11:27;19.50;99.90
44817;DHT22;30529;53.570;9.964;2023-07-20T11:14:01;19.30;99.90
44817;DHT22;30529;53.570;9.964;2023-07-20T11:16:41;19.10;99.90
44817;DHT22;30529;53.570;9.964;2023-07-20T11:19:21;19.00;99.90
44817;DHT22;30529;53.570;9.964;2023-07-20T11:21:55;18.80;99.90
44817;DHT22;30529;53.570;9.964;2023-07-20T11:24:22;18.50;99.90
44817;DHT22;30529;53.570;9.964;2023-07-20T11:26:49;18.50;99.90
44817;DHT22;30529;53.570;9.964;2023-07-20T11:29:17;18.20;99.90
44817;DHT22;30529;53.570;9.964;2023-07-20T11:31:44;18.10;99.90
44817;DHT22;30529;53.570;9.964;2023-07-20T11:34:12;18.10;99.90
44817;DHT22;30529;53.570;9.964;2023-07-20T11:36:49;18.00;99.90
44817;DHT22;30529;53.570;9.964;2023-07-20T11:39:17;18.00;99.90
44817;DHT22;30529;53.570;9.964;2023-07-20T11:41:52;18.00;99.90
44817;DHT22;30529;53.570;9.964;2023-07-20T11:44:23;18.10;99.90
44817;DHT22;30529;53.570;9.964;2023-07-20T11:47:04;18.20;99.90
44817;DHT22;30529;53.570;9.964;2023-07-20T11:49:34;18.30;99.90
44817;DHT22;30529;53.570;9.964;2023-07-20T11:52:03;18.50;99.90
44817;DHT22;30529;53.570;9.964;2023-07-20T11:54:30;18.70;99.90
44817;DHT22;30529;53.570;9.964;2023-07-20T11:57:01;18.80;99.90
44817;DHT22;30529;53.570;9.964;2023-07-20T11:59:27;19.00;99.90
44817;DHT22;30529;53.570;9.964;2023-07-20T12:01:53;19.30;99.90
44817;DHT22;30529;53.570;9.964;2023-07-20T12:04:19;19.50;99.90
44817;DHT22;30529;53.570;9.964;2023-07-20T12:06:45;19.80;99.90
44817;DHT22;30529;53.570;9.964;2023-07-20T12:09:16;20.10;99.90
44817;DHT22;30529;53.570;9.964;2023-07-20T12:11:44;20.30;99.90
44817;DHT22;30529;53.570;9.964;2023-07-20T12:14:13;20.40;99.90
44817;DHT22;30529;53.570;9.964;2023-07-20T12:16:39;20.40;99.90
44817;DHT22;30529;53.570;9.964;2023-07-20T12:19:07;20.30;99.90
44817;DHT22;30529;53.570;9.964;2023-07-20T12:21:38;20.10;99.90
44817;DHT22;30529;53.570;9.964;2023-07-20T12:24:18;19.90;99.90
44817;DHT22;30529;53.570;9.964;2023-07-20T12:26:45;20.00;99.90
44817;DHT22;30529;53.570;9.964;2023-07-20T12:29:13;20.10;99.90
44817;DHT22;30529;53.570;9.964;2023-07-20T12:31:39;20.00;99.90
44817;DHT22;30529;53.570;9.964;2023-07-20T12:34:05;20.00;99.90
44817;DHT22;30529;53.570;9.964;2023-07-20T12:36:31;20.10;99.90
44817;DHT22;30529;53.570;9.964;2023-07-20T12:38:57;20.30;99.90
44817;DHT22;30529;53.570;9.964;2023-07-20T12:41:24;20.30;99.90
44817;DHT22;30529;53.570;9.964;2023-07-20T12:43:50;20.50;99.90
44817;DHT22;30529;53.570;9.964;2023-07-20T12:46:16;20.40;99.90
44817;DHT22;30529;53.570;9.964;2023-07-20T12:48:42;20.20;99.90
44817;DHT22;30529;53.570;9.964;2023-07-20T12:51:09;20.10;99.90
44817;DHT22;30529;53.570;9.964;2023-07-20T12:53:36;20.20;99.90
44817;DHT22;30529;53.570;9.964;2023-07-20T12:56:02;20.40;99.90
44817;DHT22;30529;53.570;9.964;2023-07-20T12:58:28;20.60;99.90
44817;DHT22;30529;53.570;9.964;2023-07-20T13:00:54;20.50;99.90
44817;DHT22;30529;53.570;9.964;2023-07-20T13:03:20;20.60;99.90
44817;DHT22;30529;53.570;9.964;2023-07-20T13:05:47;20.60;99.90
44817;DHT22;30529;53.570;9.964;2023-07-20T13:08:14;20.50;99.90
44817;DHT22;30529;53.570;9.964;2023-07-20T13:10:40;20.50;99.90
44817;DHT22;30529;53.570;9.964;2023-07-20T13:13:07;20.40;99.90
44817;DHT22;30529;53.570;9.964;2023-07-20T13:15:42;20.20;99.90
44817;DHT22;30529;53.570;9.964;2023-07-20T13:18:08;20.00;99.90
44817;DHT22;30529;53.570;9.964;2023-07-20T13:20:34;19.90;99.90
44817;DHT22;30529;53.570;9.964;2023-07-20T13:23:00;19.80;99.90
44817;DHT22;30529;53.570;9.964;2023-07-20T13:25:27;19.90;99.90
44817;DHT22;30529;53.570;9.964;2023-07-20T13:27:56;19.90;99.90
44817;DHT22;30529;53.570;9.964;2023-07-20T13:30:22;19.70;99.90
44817;DHT22;30529;53.570;9.964;2023-07-20T13:32:47;19.50;99.90
44817;DHT22;30529;53.570;9.964;2023-07-20T13:35:13;19.30;99.90
44817;DHT22;30529;53.570;9.964;2023-07-20T13:37:41;19.20;99.90
44817;DHT22;30529;53.570;9.964;2023-07-20T13:40:08;19.30;99.90
44817;DHT22;30529;53.570;9.964;2023-07-20T13:42:37;19.40;99.90
44817;DHT22;30529;53.570;9.964;2023-07-20T13:45:04;19.40;99.90
44817;DHT22;30529;53.570;9.964;2023-07-20T13:47:30;19.60;99.90
44817;DHT22;30529;53.570;9.964;2023-07-20T13:49:57;19.80;99.90
44817;DHT22;30529;53.570;9.964;2023-07-20T13:52:22;19.90;99.90
44817;DHT22;30529;53.570;9.964;2023-07-20T13:54:48;20.00;99.90
44817;DHT22;30529;53.570;9.964;2023-07-20T13:57:14;19.90;99.90
44817;DHT22;30529;53.570;9.964;2023-07-20T13:59:41;19.60;99.90
44817;DHT22;30529;53.570;9.964;2023-07-20T14:02:07;19.60;99.90
44817;DHT22;30529;53.570;9.964;2023-07-20T14:04:33;19.60;99.90
44817;DHT22;30529;53.570;9.964;2023-07-20T14:06:59;19.40;99.90
44817;DHT22;30529;53.570;9.964;2023-07-20T14:09:25;19.30;99.90
44817;DHT22;30529;53.570;9.964;2023-07-20T14:11:51;19.30;99.90
44817;DHT22;30529;53.570;9.964;2023-07-20T14:14:17;19.40;99.90
44817;DHT22;30529;53.570;9.964;2023-07-20T14:16:43;19.60;99.90
44817;DHT22;30529;53.570;9.964;2023-07-20T14:19:09;19.70;99.90
44817;DHT22;30529;53.570;9.964;2023-07-20T14:21:35;19.80;99.90
44817;DHT22;30529;53.570;9.964;2023-07-20T14:24:01;19.70;99.90
44817;DHT22;30529;53.570;9.964;2023-07-20T14:26:28;19.60;99.90
44817;DHT22;30529;53.570;9.964;2023-07-20T14:28:54;19.60;99.90
44817;DHT22;30529;53.570;9.964;2023-07-20T14:31:20;19.50;99.90
44817;DHT22;30529;53.570;9.964;2023-07-20T14:33:46;19.40;99.90
44817;DHT22;30529;53.570;9.964;2023-07-20T14:36:12;19.50;99.90
44817;DHT22;30529;53.570;9.964;2023-07-20T14:38:38;19.50;99.90
44817;DHT22;30529;53.570;9.964;2023-07-20T14:41:06;19.50;99.90
44817;DHT22;30529;53.570;9.964;2023-07-20T14:43:32;19.50;99.90
44817;DHT22;30529;53.570;9.964;2023-07-20T14:45:58;19.60;99.90
44817;DHT22;30529;53.570;9.964;2023-07-20T14:48:24;19.60;99.90
44817;DHT22;30529;53.570;9.964;2023-07-20T14:50:50;19.70;99.90
44817;DHT22;30529;53.570;9.964;2023-07-20T14:53:19;19.70;99.90
44817;DHT22;30529;53.570;9.964;2023-07-20T14:55:51;19.70;99.90
44817;DHT22;30529;53.570;9.964;2023-07-20T14:58:18;19.70;99.90
44817;DHT22;30529;53.570;9.964;2023-07-20T15:00:44;19.70;99.90
44817;DHT22;30529;53.570;9.964;2023-07-20T15:03:11;19.80;99.90
44817;DHT22;30529;53.570;9.964;2023-07-20T15:05:37;19.80;99.90
44817;DHT22;30529;53.570;9.964;2023-07-20T15:08:04;20.00;99.90
44817;DHT22;30529;53.570;9.964;2023-07-20T15:10:31;20.20;99.90
44817;DHT22;30529;53.570;9.964;2023-07-20T15:13:00;20.30;99.90
44817;DHT22;30529;53.570;9.964;2023-07-20T15:15:26;20.50;99.90
44817;DHT22;30529;53.570;9.964;2023-07-20T15:17:52;20.40;99.90
44817;DHT22;30529;53.570;9.964;2023-07-20T15:20:20;20.40;99.90
44817;DHT22;30529;53.570;9.964;2023-07-20T15:22:46;20.30;99.90
44817;DHT22;30529;53.570;9.964;2023-07-20T15:25:15;20.30;99.90
44817;DHT22;30529;53.570;9.964;2023-07-20T15:27:41;20.30;99.90
44817;DHT22;30529;53.570;9.964;2023-07-20T15:30:09;20.30;99.90
44817;DHT22;30529;53.570;9.964;2023-07-20T15:32:35;20.20;99.90
44817;DHT22;30529;53.570;9.964;2023-07-20T15:35:04;19.90;99.90
44817;DHT22;30529;53.570;9.964;2023-07-20T15:37:31;19.60;99.90
44817;DHT22;30529;53.570;9.964;2023-07-20T15:39:57;19.30;99.90
44817;DHT22;30529;53.570;9.964;2023-07-20T15:42:27;19.20;99.90
44817;DHT22;30529;53.570;9.964;2023-07-20T15:44:53;19.20;99.90
44817;DHT22;30529;53.570;9.964;2023-07-20T15:47:19;19.20;99.90